| time (UTC) | temp F | wind direction | speed MPH | gust MPH | rain 1hr in | rain 24hr in | rain mn in | humidity % | barometer mb |
| 20260509173626 | 49 | 0 | 0.0 | 0.0 | 0.00 | 0.00 | 0.00 | 71 | 1017.8 |
| 20260509172726 | 49 | 0 | 0.0 | 0.0 | 0.00 | 0.00 | 0.00 | 70 | 1017.7 |
| 20260509171826 | 49 | 0 | 0.0 | 0.0 | 0.00 | 0.00 | 0.00 | 69 | 1017.7 |
| 20260509170926 | 50 | 309 | 1.0 | 3.0 | 0.00 | 0.00 | 0.00 | 69 | 1017.6 |
| 20260509170026 | 50 | 305 | 2.0 | 4.0 | 0.00 | 0.00 | 0.00 | 68 | 1017.5 |
| 20260509165127 | 50 | 300 | 1.0 | 4.0 | 0.00 | 0.00 | 0.00 | 69 | 1017.5 |
| 20260509164226 | 50 | 293 | 0.0 | 2.0 | 0.00 | 0.00 | 0.00 | 67 | 1017.4 |
| 20260509155726 | 52 | 310 | 1.0 | 4.0 | 0.00 | 0.00 | 0.00 | 64 | 1017.2 |
| 20260509153026 | 52 | 318 | 1.0 | 3.0 | 0.00 | 0.00 | 0.00 | 61 | 1017.2 |
| 20260509152126 | 53 | 312 | 0.0 | 3.0 | 0.00 | 0.00 | 0.00 | 61 | 1017.2 |
| 20260509150326 | 53 | 319 | 1.0 | 3.0 | 0.00 | 0.00 | 0.00 | 59 | 1017.1 |
| 20260509145426 | 54 | 317 | 1.0 | 4.0 | 0.00 | 0.00 | 0.00 | 58 | 1017.1 |
| 20260509144526 | 54 | 337 | 1.0 | 4.0 | 0.00 | 0.00 | 0.00 | 57 | 1016.8 |
| 20260509143627 | 54 | 298 | 1.0 | 3.0 | 0.00 | 0.00 | 0.00 | 56 | 1016.7 |
| 20260509142727 | 54 | 295 | 0.0 | 3.0 | 0.00 | 0.00 | 0.00 | 55 | 1016.6 |
| 20260509141826 | 55 | 308 | 1.0 | 5.0 | 0.00 | 0.00 | 0.00 | 54 | 1016.5 |
| 20260509140026 | 56 | 304 | 2.0 | 7.0 | 0.00 | 0.00 | 0.00 | 52 | 1016.3 |
| 20260509135126 | 56 | 312 | 1.0 | 4.0 | 0.00 | 0.00 | 0.00 | 51 | 1016.2 |
| 20260509134226 | 56 | 294 | 2.0 | 5.0 | 0.00 | 0.00 | 0.00 | 50 | 1016.1 |
| 20260509133326 | 57 | 296 | 4.0 | 7.0 | 0.00 | 0.00 | 0.00 | 50 | 1016.1 |
| 20260509132426 | 57 | 302 | 4.0 | 7.0 | 0.00 | 0.00 | 0.00 | 48 | 1015.9 |
| 20260509131526 | 58 | 296 | 3.0 | 7.0 | 0.00 | 0.00 | 0.00 | 47 | 1015.8 |
| 20260509130626 | 58 | 297 | 4.0 | 7.0 | 0.00 | 0.00 | 0.00 | 46 | 1015.8 |
| 20260509125726 | 58 | 291 | 4.0 | 7.0 | 0.00 | 0.00 | 0.00 | 46 | 1015.8 |
| 20260509124826 | 59 | 305 | 4.0 | 7.0 | 0.00 | 0.00 | 0.00 | 46 | 1015.7 |
| 20260509123927 | 59 | 325 | 4.0 | 8.0 | 0.00 | 0.00 | 0.00 | 45 | 1015.6 |
| 20260509123026 | 59 | 308 | 5.0 | 8.0 | 0.00 | 0.00 | 0.00 | 45 | 1015.5 |
| 20260509121226 | 60 | 311 | 3.0 | 8.0 | 0.00 | 0.00 | 0.00 | 43 | 1015.4 |
| 20260509120325 | 60 | 322 | 4.0 | 8.0 | 0.00 | 0.00 | 0.00 | 43 | 1015.4 |
| 20260509115426 | 61 | 303 | 4.0 | 8.0 | 0.00 | 0.00 | 0.00 | 44 | 1015.2 |
| 20260509114526 | 62 | 324 | 3.0 | 7.0 | 0.00 | 0.00 | 0.00 | 42 | 1015.2 |
| 20260509113626 | 62 | 322 | 5.0 | 10.0 | 0.00 | 0.00 | 0.00 | 38 | 1015.2 |
| 20260509112727 | 63 | 306 | 5.0 | 9.0 | 0.00 | 0.00 | 0.00 | 39 | 1015.1 |
| 20260509111826 | 64 | 312 | 3.0 | 7.0 | 0.00 | 0.00 | 0.00 | 36 | 1014.9 |
| 20260509110926 | 65 | 306 | 3.0 | 10.0 | 0.00 | 0.00 | 0.00 | 34 | 1014.8 |
| 20260509105126 | 66 | 281 | 6.0 | 11.0 | 0.00 | 0.00 | 0.00 | 31 | 1014.4 |
| 20260509104226 | 66 | 279 | 5.0 | 12.0 | 0.00 | 0.00 | 0.00 | 39 | 1014.3 |
| 20260509101526 | 67 | 233 | 4.0 | 11.0 | 0.00 | 0.00 | 0.00 | 47 | 1013.6 |
| 20260509100626 | 67 | 239 | 4.0 | 12.0 | 0.00 | 0.00 | 0.00 | 46 | 1013.4 |
| 20260509095726 | 67 | 247 | 3.0 | 8.0 | 0.00 | 0.00 | 0.00 | 41 | 1013.1 |
| 20260509094827 | 68 | 253 | 2.0 | 7.0 | 0.00 | 0.00 | 0.00 | 40 | 1012.8 |
| 20260509093926 | 69 | 270 | 3.0 | 9.0 | 0.00 | 0.00 | 0.00 | 39 | 1012.8 |
| 20260509093026 | 69 | 250 | 3.0 | 9.0 | 0.00 | 0.00 | 0.00 | 38 | 1012.6 |
| 20260509092126 | 70 | 266 | 3.0 | 9.0 | 0.00 | 0.00 | 0.00 | 28 | 1012.4 |
| 20260509090326 | 71 | 320 | 7.0 | 14.0 | 0.00 | 0.00 | 0.00 | 25 | 1011.8 |
| 20260509081826 | 73 | 335 | 8.0 | 15.0 | 0.00 | 0.00 | 0.00 | 25 | 1010.7 |
| 20260509080927 | 73 | 340 | 7.0 | 15.0 | 0.00 | 0.00 | 0.00 | 25 | 1010.5 |
| 20260509075127 | 74 | 341 | 8.0 | 16.0 | 0.00 | 0.00 | 0.00 | 24 | 1010.4 |
| 20260509074226 | 74 | 335 | 11.0 | 19.0 | 0.00 | 0.00 | 0.00 | 24 | 1010.2 |
| 20260509073326 | 74 | 330 | 9.0 | 16.0 | 0.00 | 0.00 | 0.00 | 25 | 1010.2 |
| 20260509072426 | 75 | 322 | 10.0 | 21.0 | 0.00 | 0.00 | 0.00 | 24 | 1010.0 |
| 20260509071526 | 75 | 322 | 10.0 | 21.0 | 0.00 | 0.00 | 0.00 | 24 | 1009.9 |
| 20260509070627 | 76 | 341 | 10.0 | 19.0 | 0.00 | 0.00 | 0.00 | 23 | 1009.7 |
| 20260509064827 | 76 | 330 | 10.0 | 23.0 | 0.00 | 0.00 | 0.00 | 24 | 1009.6 |
| 20260509063027 | 77 | 354 | 10.0 | 22.0 | 0.00 | 0.00 | 0.00 | 21 | 1009.4 |
| 20260509060326 | 77 | 359 | 12.0 | 22.0 | 0.00 | 0.00 | 0.00 | 22 | 1009.5 |
| 20260509054526 | 77 | 2 | 13.0 | 26.0 | 0.00 | 0.00 | 0.00 | 21 | 1009.3 |
| 20260509053627 | 78 | 355 | 13.0 | 21.0 | 0.00 | 0.00 | 0.00 | 21 | 1009.4 |
| 20260509052727 | 78 | 350 | 12.0 | 22.0 | 0.00 | 0.00 | 0.00 | 20 | 1009.2 |
| 20260509051827 | 78 | 345 | 11.0 | 21.0 | 0.00 | 0.00 | 0.00 | 22 | 1009.4 |
| 20260509050926 | 78 | 354 | 13.0 | 23.0 | 0.00 | 0.00 | 0.00 | 22 | 1009.4 |
| 20260509050026 | 78 | 343 | 12.0 | 24.0 | 0.00 | 0.00 | 0.00 | 21 | 1009.1 |
| 20260509045126 | 78 | 342 | 13.0 | 25.0 | 0.00 | 0.00 | 0.00 | 21 | 1009.3 |
| 20260509044226 | 78 | 344 | 12.0 | 22.0 | 0.00 | 0.00 | 0.00 | 21 | 1009.5 |
| 20260509043326 | 77 | 341 | 14.0 | 28.0 | 0.00 | 0.00 | 0.00 | 21 | 1009.6 |
| 20260509042426 | 77 | 341 | 15.0 | 27.0 | 0.00 | 0.00 | 0.00 | 21 | 1009.6 |
| 20260509041526 | 77 | 3 | 13.0 | 25.0 | 0.00 | 0.00 | 0.00 | 22 | 1009.5 |
| 20260509040626 | 77 | 5 | 13.0 | 25.0 | 0.00 | 0.00 | 0.00 | 22 | 1009.4 |
| 20260509035726 | 78 | 358 | 13.0 | 22.0 | 0.00 | 0.00 | 0.00 | 20 | 1009.4 |
| 20260509034826 | 78 | 357 | 12.0 | 20.0 | 0.00 | 0.00 | 0.00 | 23 | 1009.5 |
| 20260509033926 | 77 | 4 | 12.0 | 21.0 | 0.00 | 0.00 | 0.00 | 22 | 1009.5 |
| 20260509033027 | 77 | 354 | 14.0 | 26.0 | 0.00 | 0.00 | 0.00 | 23 | 1009.5 |
| 20260509032126 | 77 | 358 | 14.0 | 23.0 | 0.00 | 0.00 | 0.00 | 24 | 1009.6 |
| 20260509031226 | 76 | 354 | 14.0 | 24.0 | 0.00 | 0.00 | 0.00 | 24 | 1009.4 |
| 20260509030326 | 76 | 1 | 11.0 | 21.0 | 0.00 | 0.00 | 0.00 | 27 | 1009.5 |
| 20260509025426 | 76 | 353 | 12.0 | 24.0 | 0.00 | 0.00 | 0.00 | 28 | 1009.5 |
| 20260509024526 | 76 | 357 | 12.0 | 26.0 | 0.00 | 0.00 | 0.00 | 28 | 1009.9 |
| 20260509022727 | 76 | 334 | 11.0 | 18.0 | 0.00 | 0.00 | 0.00 | 28 | 1010.2 |
| 20260509021826 | 76 | 333 | 9.0 | 16.0 | 0.00 | 0.00 | 0.00 | 30 | 1010.2 |
| 20260509020926 | 75 | 330 | 10.0 | 20.0 | 0.00 | 0.00 | 0.00 | 31 | 1010.4 |
| 20260509020026 | 75 | 314 | 9.0 | 18.0 | 0.00 | 0.00 | 0.00 | 31 | 1010.3 |
| 20260509014226 | 74 | 1 | 7.0 | 17.0 | 0.00 | 0.00 | 0.00 | 32 | 1010.4 |
| 20260509012426 | 73 | 347 | 9.0 | 18.0 | 0.00 | 0.00 | 0.00 | 32 | 1010.7 |
| 20260509011526 | 73 | 345 | 9.0 | 19.0 | 0.00 | 0.00 | 0.00 | 33 | 1010.7 |
| 20260509010626 | 73 | 2 | 8.0 | 18.0 | 0.00 | 0.00 | 0.00 | 33 | 1010.7 |
| 20260509005727 | 72 | 343 | 7.0 | 18.0 | 0.00 | 0.00 | 0.00 | 34 | 1010.6 |
| 20260509004826 | 72 | 356 | 7.0 | 18.0 | 0.00 | 0.00 | 0.00 | 34 | 1010.6 |
| 20260509003925 | 71 | 334 | 8.0 | 19.0 | 0.00 | 0.00 | 0.00 | 35 | 1010.3 |
| 20260509002126 | 70 | 318 | 12.0 | 21.0 | 0.00 | 0.00 | 0.00 | 34 | 1010.0 |
| 20260509001226 | 70 | 318 | 13.0 | 22.0 | 0.00 | 0.00 | 0.00 | 34 | 1009.9 |
| 20260508234526 | 69 | 324 | 11.0 | 23.0 | 0.00 | 0.00 | 0.00 | 35 | 1009.5 |
| 20260508233626 | 69 | 342 | 9.0 | 21.0 | 0.00 | 0.00 | 0.00 | 36 | 1009.5 |
| 20260508232726 | 68 | 344 | 10.0 | 17.0 | 0.00 | 0.00 | 0.00 | 35 | 1009.4 |
| 20260508231826 | 68 | 336 | 9.0 | 19.0 | 0.00 | 0.00 | 0.00 | 36 | 1009.2 |
| 20260508230926 | 67 | 347 | 11.0 | 19.0 | 0.00 | 0.00 | 0.00 | 37 | 1009.2 |
| 20260508230026 | 67 | 349 | 11.0 | 19.0 | 0.00 | 0.00 | 0.00 | 37 | 1009.0 |
| 20260508225126 | 66 | 341 | 10.0 | 22.0 | 0.00 | 0.00 | 0.00 | 37 | 1008.8 |
| 20260508224226 | 66 | 348 | 8.0 | 20.0 | 0.00 | 0.00 | 0.00 | 36 | 1008.7 |
| 20260508223326 | 65 | 345 | 8.0 | 19.0 | 0.00 | 0.00 | 0.00 | 38 | 1008.6 |
| 20260508215726 | 62 | 354 | 2.0 | 11.0 | 0.00 | 0.00 | 0.00 | 40 | 1008.4 |
| 20260508214826 | 61 | 267 | 3.0 | 10.0 | 0.00 | 0.00 | 0.00 | 38 | 1008.1 |
| 20260508213927 | 62 | 314 | 3.0 | 13.0 | 0.00 | 0.00 | 0.00 | 39 | 1008.2 |
| 20260508213026 | 62 | 89 | 3.0 | 9.0 | 0.00 | 0.00 | 0.00 | 37 | 1008.1 |
| 20260508210327 | 60 | 219 | 3.0 | 12.0 | 0.00 | 0.00 | 0.00 | 39 | 1007.4 |
| 20260508205425 | 59 | 345 | 2.0 | 5.0 | 0.00 | 0.00 | 0.00 | 42 | 1007.6 |
| 20260508203627 | 59 | 67 | 5.0 | 12.0 | 0.00 | 0.00 | 0.00 | 38 | 1007.1 |
| 20260508202727 | 59 | 331 | 2.0 | 7.0 | 0.00 | 0.00 | 0.00 | 38 | 1007.1 |
| 20260508201826 | 60 | 233 | 2.0 | 7.0 | 0.00 | 0.00 | 0.00 | 37 | 1006.9 |
| 20260508200026 | 59 | 31 | 3.0 | 9.0 | 0.00 | 0.00 | 0.00 | 37 | 1006.4 |
| 20260508195126 | 59 | 351 | 5.0 | 15.0 | 0.00 | 0.00 | 0.00 | 37 | 1006.4 |
| 20260508194226 | 59 | 4 | 7.0 | 15.0 | 0.00 | 0.00 | 0.00 | 37 | 1006.2 |
| 20260508193326 | 59 | 358 | 6.0 | 15.0 | 0.00 | 0.00 | 0.00 | 36 | 1005.9 |
| 20260508192426 | 59 | 355 | 7.0 | 15.0 | 0.00 | 0.00 | 0.00 | 36 | 1005.9 |
| 20260508191526 | 59 | 348 | 6.0 | 15.0 | 0.00 | 0.00 | 0.00 | 36 | 1005.8 |
| 20260508185726 | 60 | 351 | 9.0 | 21.0 | 0.00 | 0.00 | 0.00 | 34 | 1005.8 |
| 20260508184826 | 60 | 352 | 12.0 | 20.0 | 0.00 | 0.00 | 0.00 | 33 | 1005.6 |
| 20260508183926 | 60 | 354 | 10.0 | 18.0 | 0.00 | 0.00 | 0.00 | 32 | 1005.4 |
| 20260508183026 | 60 | 1 | 11.0 | 22.0 | 0.00 | 0.00 | 0.00 | 31 | 1005.3 |
| 20260508182126 | 59 | 356 | 9.0 | 22.0 | 0.00 | 0.00 | 0.00 | 32 | 1005.1 |
| 20260508181226 | 59 | 347 | 9.0 | 22.0 | 0.00 | 0.00 | 0.00 | 31 | 1005.1 |
| 20260508180325 | 60 | 348 | 11.0 | 22.0 | 0.00 | 0.00 | 0.00 | 32 | 1005.0 |
| 20260508175426 | 60 | 352 | 10.0 | 22.0 | 0.00 | 0.00 | 0.00 | 31 | 1005.0 |
| 20260508174526 | 60 | 349 | 9.0 | 18.0 | 0.00 | 0.00 | 0.00 | 29 | 1004.9 |